Time;durP1;ratioP1;P1;durP2;ratioP2;P2;SDS_P1;SDS_P2;PMS_P1;PMS_P2;Temp;Humidity;BMP_temperature;BMP_pressure;BME280_temperature;BME280_humidity;BME280_pressure;Samples;Min_cycle;Max_cycle;Signal;HPM_P1;HPM_P2
2022/05/04 00:00:09;;;;;;;5.20;4.70;;;;;;;15.51;56.25;98785.00;5074622;28;41690;-78
2022/05/04 00:02:43;;;;;;;4.87;4.37;;;;;;;15.51;56.22;98793.00;5106909;27;41750;-77
2022/05/04 00:05:10;;;;;;;4.73;4.23;;;;;;;15.41;56.15;98787.59;5132638;27;41313;-78
2022/05/04 00:07:38;;;;;;;4.73;4.33;;;;;;;15.44;56.08;98801.53;5134496;27;40955;-77
2022/05/04 00:10:08;;;;;;;5.90;4.93;;;;;;;15.40;55.77;98797.41;5115873;27;41502;-78
2022/05/04 00:12:36;;;;;;;5.80;5.30;;;;;;;15.38;56.11;98794.03;5115148;27;44154;-79
2022/05/04 00:15:05;;;;;;;6.37;4.37;;;;;;;15.36;56.31;98793.28;5133518;27;42370;-76
2022/05/04 00:17:32;;;;;;;5.23;4.63;;;;;;;15.36;56.62;98793.28;5132529;27;41454;-79
2022/05/04 00:20:00;;;;;;;6.00;5.40;;;;;;;15.25;57.11;98774.66;5122618;27;40710;-78
2022/05/04 00:22:27;;;;;;;5.23;4.73;;;;;;;15.34;57.43;98783.72;5113262;28;43819;-78
2022/05/04 00:24:55;;;;;;;6.20;5.33;;;;;;;15.35;57.01;98791.59;5094492;27;41022;-78
2022/05/04 00:27:24;;;;;;;6.10;5.50;;;;;;;15.33;57.26;98796.22;5095180;28;38998;-78
2022/05/04 00:29:51;;;;;;;6.07;5.07;;;;;;;15.31;56.61;98790.19;5094311;28;40964;-76
2022/05/04 00:32:19;;;;;;;5.40;4.90;;;;;;;15.38;56.50;98796.69;5111983;28;44315;-77
2022/05/04 00:34:47;;;;;;;5.80;4.53;;;;;;;15.40;56.19;98802.75;5094686;28;41547;-78
2022/05/04 00:37:14;;;;;;;4.90;4.40;;;;;;;15.32;56.22;98794.53;5112126;28;39927;-78
2022/05/04 00:39:42;;;;;;;5.10;4.67;;;;;;;15.38;56.09;98799.34;5108652;27;40899;-77
2022/05/04 00:42:11;;;;;;;4.50;4.10;;;;;;;15.40;55.95;98810.75;5115047;27;41905;-79
2022/05/04 00:44:41;;;;;;;4.50;4.10;;;;;;;15.44;55.73;98808.69;5132405;27;42357;-77
2022/05/04 00:47:09;;;;;;;5.43;4.93;;;;;;;15.46;55.99;98809.38;5133305;27;40742;-79
2022/05/04 00:49:37;;;;;;;5.87;5.27;;;;;;;15.36;55.83;98790.63;5101735;27;41897;-77
2022/05/04 00:52:05;;;;;;;4.80;4.03;;;;;;;15.45;55.96;98803.19;5092570;28;43808;-78
2022/05/04 00:54:36;;;;;;;4.90;4.40;;;;;;;15.29;56.35;98778.78;5112110;28;20226;-77
2022/05/04 00:57:05;;;;;;;5.10;4.53;;;;;;;15.38;56.01;98798.50;5110634;27;39975;-76
2022/05/04 00:59:32;;;;;;;4.47;4.07;;;;;;;15.43;56.18;98801.66;5094036;28;41693;-78
2022/05/04 01:02:01;;;;;;;6.77;4.83;;;;;;;15.41;56.61;98807.13;5100270;28;41592;-78
2022/05/04 01:04:29;;;;;;;6.07;5.23;;;;;;;15.41;56.73;98801.78;5074067;28;43098;-77
2022/05/04 01:06:56;;;;;;;5.93;4.83;;;;;;;15.28;56.63;98778.91;5091373;28;40111;-77
2022/05/04 01:09:24;;;;;;;4.83;4.37;;;;;;;15.39;56.84;98803.72;5091056;28;40941;-79
2022/05/04 01:11:51;;;;;;;5.07;4.67;;;;;;;15.38;56.60;98804.69;5096162;28;42735;-78
2022/05/04 01:14:19;;;;;;;4.97;4.47;;;;;;;15.37;56.75;98799.47;5111280;28;42451;-77
2022/05/04 01:16:48;;;;;;;5.47;4.67;;;;;;;15.35;57.51;98799.59;5111473;28;41002;-77
2022/05/04 01:19:17;;;;;;;6.20;5.60;;;;;;;15.33;57.64;98796.22;5093216;28;43936;-77
2022/05/04 01:21:49;;;;;;;5.27;4.80;;;;;;;15.31;57.11;98795.53;5095389;28;42502;-79
2022/05/04 01:24:17;;;;;;;5.10;4.60;;;;;;;15.16;57.66;98770.09;5090402;28;41206;-77
2022/05/04 01:26:44;;;;;;;5.10;4.60;;;;;;;15.29;57.53;98785.94;5074209;28;40383;-77
2022/05/04 01:29:14;;;;;;;5.70;5.20;;;;;;;15.25;57.79;98785.34;5099458;27;41222;-79
2022/05/04 01:31:42;;;;;;;6.57;5.87;;;;;;;15.22;57.91;98782.06;5111026;28;42664;-76
2022/05/04 01:34:09;;;;;;;6.30;5.70;;;;;;;15.21;58.20;98789.22;5110982;28;43115;-78
2022/05/04 01:36:37;;;;;;;5.47;4.97;;;;;;;15.20;57.98;98789.38;5104480;28;39057;-77
2022/05/04 01:39:06;;;;;;;5.60;5.10;;;;;;;15.18;57.70;98789.50;5087911;28;40263;-77
2022/05/04 01:44:18;;;;;;;8.03;6.70;;;;;;;15.14;58.17;98789.88;5087999;28;41402;-77
2022/05/04 01:46:45;;;;;;;5.83;5.33;;;;;;;15.10;57.91;98786.59;5105452;28;39793;-76
2022/05/04 01:49:13;;;;;;;7.50;4.83;;;;;;;15.09;57.90;98790.22;5105970;28;41933;-77
2022/05/04 01:51:40;;;;;;;4.97;4.53;;;;;;;15.07;57.62;98797.53;5094113;28;41680;-78
2022/05/04 01:54:09;;;;;;;6.47;5.83;;;;;;;15.06;57.62;98795.84;5090844;28;43211;-78
2022/05/04 01:56:37;;;;;;;4.77;4.33;;;;;;;15.03;57.68;98798.75;5090587;28;39693;-77
2022/05/04 01:59:05;;;;;;;4.90;4.40;;;;;;;15.00;57.48;98791.00;5090797;28;41472;-77
2022/05/04 02:01:33;;;;;;;5.97;5.10;;;;;;;14.98;57.51;98798.25;5090282;28;44335;-78
2022/05/04 02:04:01;;;;;;;5.13;4.73;;;;;;;14.85;57.64;98777.09;5090339;28;41150;-77
2022/05/04 02:06:28;;;;;;;5.00;4.50;;;;;;;14.91;57.75;98791.75;5073467;28;40217;-78
2022/05/04 02:08:57;;;;;;;5.07;4.53;;;;;;;14.90;57.35;98792.72;5094116;28;42454;-78
2022/05/04 02:11:28;;;;;;;5.10;4.60;;;;;;;14.88;57.41;98797.31;5094085;28;42717;-78
2022/05/04 02:13:56;;;;;;;6.20;4.97;;;;;;;14.76;57.39;98782.31;5094249;28;41739;-76
2022/05/04 02:16:24;;;;;;;5.13;4.63;;;;;;;14.85;57.73;98797.56;5077282;28;39013;-77
2022/05/04 02:18:51;;;;;;;5.07;4.57;;;;;;;14.82;57.90;98792.50;5094410;28;42716;-79
2022/05/04 02:21:19;;;;;;;7.07;5.27;;;;;;;14.79;57.74;98782.94;5093124;28;43608;-77
2022/05/04 02:23:47;;;;;;;5.57;5.07;;;;;;;14.77;57.84;98789.34;5093486;28;42202;-78
2022/05/04 02:26:14;;;;;;;4.80;4.40;;;;;;;14.74;57.78;98788.63;5076564;28;40158;-78
2022/05/04 02:28:43;;;;;;;7.83;4.93;;;;;;;14.73;57.88;98794.91;5076585;28;40835;-78
2022/05/04 02:31:11;;;;;;;5.30;4.70;;;;;;;14.71;57.95;98799.50;5093520;28;42686;-78
2022/05/04 02:33:38;;;;;;;5.20;4.57;;;;;;;14.71;58.07;98794.19;5076087;28;41186;-79
2022/05/04 02:38:51;;;;;;;5.53;5.03;;;;;;;14.69;59.49;98782.81;5076401;28;40715;-77
2022/05/04 02:41:19;;;;;;;7.70;6.60;;;;;;;14.55;59.21;98769.75;5094645;28;42707;-79
2022/05/04 02:43:48;;;;;;;6.43;5.30;;;;;;;14.67;59.26;98784.75;5091869;28;42246;-77
2022/05/04 02:46:16;;;;;;;5.63;5.13;;;;;;;14.54;58.83;98768.06;5094632;28;39932;-77
2022/05/04 02:48:44;;;;;;;5.47;4.63;;;;;;;14.66;58.78;98780.41;5094223;28;41681;-77
2022/05/04 02:51:12;;;;;;;5.37;4.87;;;;;;;14.67;58.43;98792.75;5093407;28;43845;-77
2022/05/04 02:53:39;;;;;;;5.37;4.87;;;;;;;14.65;58.70;98785.84;5092928;28;42498;-78
2022/05/04 02:56:08;;;;;;;5.47;4.83;;;;;;;14.63;58.39;98793.97;5076185;28;41813;-77
2022/05/04 02:58:36;;;;;;;6.13;5.53;;;;;;;14.62;58.41;98792.28;5092613;28;41802;-78
2022/05/04 03:03:57;;;;;;;6.20;4.57;;;;;;;14.57;58.86;98789.16;5096271;27;42346;-78
2022/05/04 03:06:25;;;;;;;6.10;5.13;;;;;;;14.56;58.79;98786.59;5094360;28;39082;-78
2022/05/04 03:08:52;;;;;;;4.93;4.43;;;;;;;14.56;59.76;98787.44;5092682;28;40762;-78
2022/05/04 03:14:07;;;;;;;5.50;5.00;;;;;;;14.57;59.72;98778.47;5090741;28;42131;-79
2022/05/04 03:16:37;;;;;;;5.67;5.03;;;;;;;14.57;59.59;98778.47;5076214;28;38859;-78
2022/05/04 03:19:05;;;;;;;5.30;4.80;;;;;;;14.57;59.78;98773.16;5074478;28;41742;-78
2022/05/04 03:21:32;;;;;;;5.87;5.37;;;;;;;14.33;59.44;98729.78;5092403;28;44412;-76
2022/05/04 03:24:00;;;;;;;6.27;5.60;;;;;;;14.60;59.43;98777.38;5092604;28;42338;-77
2022/05/04 03:26:28;;;;;;;5.43;4.93;;;;;;;14.60;59.20;98775.53;5092754;28;41052;-78
2022/05/04 03:28:56;;;;;;;8.13;4.53;;;;;;;14.62;59.17;98786.09;5093772;28;42766;-76
2022/05/04 03:31:24;;;;;;;5.30;4.67;;;;;;;14.60;58.91;98788.88;5092814;28;42760;-78
2022/05/04 03:33:53;;;;;;;5.33;4.83;;;;;;;14.58;59.09;98785.50;5092392;28;41150;-77
2022/05/04 03:36:20;;;;;;;5.53;4.97;;;;;;;14.59;58.71;98792.50;5093722;28;41044;-77
2022/05/04 03:38:48;;;;;;;4.67;4.27;;;;;;;14.55;58.87;98791.06;5103041;27;42443;-78
2022/05/04 03:41:16;;;;;;;5.53;5.03;;;;;;;14.57;58.75;98791.81;5095728;28;43448;-77
2022/05/04 03:43:44;;;;;;;5.10;4.57;;;;;;;14.57;58.87;98802.47;5112710;28;41601;-77
2022/05/04 03:46:15;;;;;;;5.80;5.30;;;;;;;14.56;58.48;98790.13;5112602;28;38860;-78
2022/05/04 03:48:43;;;;;;;5.03;4.53;;;;;;;14.58;58.63;98796.16;5111641;28;41744;-78
2022/05/04 03:51:13;;;;;;;5.30;4.70;;;;;;;14.58;58.90;98790.84;5113837;28;42789;-79
2022/05/04 03:53:42;;;;;;;4.83;4.20;;;;;;;14.58;58.72;98795.31;5109537;28;42419;-79
2022/05/04 03:56:09;;;;;;;5.23;4.73;;;;;;;14.58;58.75;98796.16;5091886;28;40976;-77
2022/05/04 03:58:38;;;;;;;4.23;3.93;;;;;;;14.58;58.99;98790.84;5113726;28;41690;-77
2022/05/04 04:01:05;;;;;;;5.43;4.87;;;;;;;14.58;59.20;98790.84;5095450;28;42560;-78
2022/05/04 04:03:33;;;;;;;4.90;4.50;;;;;;;14.59;59.04;98789.00;5100871;28;42298;-78
2022/05/04 04:06:01;;;;;;;5.43;4.50;;;;;;;14.59;59.06;98787.19;5093414;28;40014;-78
2022/05/04 04:08:30;;;;;;;5.43;4.80;;;;;;;14.59;59.14;98787.19;5091696;28;41863;-76
2022/05/04 04:10:58;;;;;;;7.67;4.77;;;;;;;14.60;59.10;98791.53;5092966;27;42729;-77
2022/05/04 04:13:26;;;;;;;5.00;4.60;;;;;;;14.61;59.04;98798.56;5131833;27;43333;-77
2022/05/04 04:15:54;;;;;;;5.27;4.77;;;;;;;14.62;59.10;98797.59;5133227;27;40002;-79
2022/05/04 04:18:22;;;;;;;4.90;4.40;;;;;;;14.63;59.13;98801.13;5132886;27;41709;-79
2022/05/04 04:23:36;;;;;;;5.60;5.03;;;;;;;14.65;59.53;98802.69;5131069;27;42272;-76
2022/05/04 04:26:05;;;;;;;6.73;6.00;;;;;;;14.67;59.42;98803.41;5134025;27;40197;-77
2022/05/04 04:28:34;;;;;;;6.07;5.47;;;;;;;14.60;59.70;98790.69;5101565;27;42656;-79
2022/05/04 04:31:02;;;;;;;7.93;5.70;;;;;;;14.35;59.53;98747.31;5077280;28;41872;-78
2022/05/04 04:33:30;;;;;;;6.00;5.40;;;;;;;14.73;59.75;98804.72;5090678;27;43401;-77
2022/05/04 04:35:58;;;;;;;5.13;4.63;;;;;;;14.76;59.45;98809.81;5090758;28;39663;-79
2022/05/04 04:38:26;;;;;;;5.07;4.57;;;;;;;14.79;59.70;98808.75;5102850;28;42781;-77
2022/05/04 04:40:55;;;;;;;5.43;4.93;;;;;;;14.81;59.50;98809.47;5110125;27;42509;-77
2022/05/04 04:43:22;;;;;;;5.60;5.10;;;;;;;14.83;59.61;98810.19;5094044;28;41704;-78
2022/05/04 04:45:51;;;;;;;5.17;4.67;;;;;;;14.87;59.45;98811.63;5111836;28;39998;-77
2022/05/04 04:48:19;;;;;;;5.90;5.30;;;;;;;14.90;59.64;98811.38;5094034;28;41545;-77
2022/05/04 04:50:47;;;;;;;6.80;5.40;;;;;;;14.93;59.81;98816.47;5111359;28;42307;-77
2022/05/04 04:53:15;;;;;;;5.30;4.80;;;;;;;14.96;59.74;98821.56;5108466;27;42229;-77
2022/05/04 04:55:43;;;;;;;6.00;5.40;;;;;;;14.97;59.86;98816.09;5089158;28;38601;-77
2022/05/04 04:58:13;;;;;;;6.20;5.60;;;;;;;14.94;59.70;98811.03;5091466;28;40526;-76
2022/05/04 05:00:40;;;;;;;5.30;4.63;;;;;;;15.03;59.67;98818.28;5090276;28;41821;-76
2022/05/04 05:03:08;;;;;;;5.13;4.63;;;;;;;15.07;59.98;98824.22;5089871;28;40965;-78
2022/05/04 05:05:36;;;;;;;6.03;5.43;;;;;;;15.07;59.95;98818.88;5102528;28;40489;-76
2022/05/04 05:08:03;;;;;;;5.90;5.40;;;;;;;15.15;59.90;98821.75;5074478;28;41265;-79
2022/05/04 05:10:31;;;;;;;6.73;5.67;;;;;;;15.18;60.24;98821.50;5085124;28;41560;-77
2022/05/04 05:12:58;;;;;;;7.07;6.40;;;;;;;15.24;60.40;98817.47;5093590;28;41180;-77
2022/05/04 05:18:12;;;;;;;7.63;6.30;;;;;;;15.37;60.88;98816.34;5108771;28;42656;-77
2022/05/04 05:20:40;;;;;;;8.23;6.43;;;;;;;15.42;60.42;98824.81;5108727;28;43197;-79
2022/05/04 05:23:08;;;;;;;6.73;6.13;;;;;;;15.48;60.34;98825.28;5110779;28;41163;-78
2022/05/04 05:25:36;;;;;;;7.07;6.37;;;;;;;15.58;60.88;98824.41;5111025;28;38629;-78
2022/05/04 05:28:05;;;;;;;8.50;7.30;;;;;;;15.67;60.81;98818.31;5111013;28;41953;-78
2022/05/04 05:30:34;;;;;;;8.83;7.93;;;;;;;15.76;60.56;98816.69;5092132;28;42634;-78
2022/05/04 05:33:01;;;;;;;9.07;8.13;;;;;;;15.82;60.27;98821.53;5091081;28;42762;-79
2022/05/04 05:35:28;;;;;;;8.97;8.03;;;;;;;15.79;60.00;98805.75;5090976;28;40042;-78
2022/05/04 05:37:56;;;;;;;9.17;8.00;;;;;;;15.98;60.29;98821.06;5091305;28;40681;-77
2022/05/04 05:40:24;;;;;;;8.73;7.57;;;;;;;16.11;59.94;98816.34;5104987;28;42790;-78
2022/05/04 05:42:51;;;;;;;8.53;7.63;;;;;;;16.23;59.50;98819.81;5093295;28;42528;-77
2022/05/04 05:45:18;;;;;;;9.87;8.87;;;;;;;16.34;59.84;98819.72;5112419;28;40125;-77
2022/05/04 05:47:48;;;;;;;12.40;9.77;;;;;;;16.22;59.44;98794.06;5108081;28;41557;-76
2022/05/04 05:50:17;;;;;;;11.63;9.23;;;;;;;16.50;59.38;98823.59;5102064;27;43734;-78
2022/05/04 05:52:44;;;;;;;9.27;8.03;;;;;;;16.64;59.01;98826.94;5111982;28;43222;-77
2022/05/04 05:55:12;;;;;;;11.17;9.30;;;;;;;16.69;58.66;98822.84;5112231;28;41764;-77
2022/05/04 05:57:40;;;;;;;11.47;8.13;;;;;;;16.84;58.16;98826.84;5111319;28;41831;-78
2022/05/04 06:00:08;;;;;;;14.57;9.00;;;;;;;16.95;57.76;98836.59;5111229;28;43732;-78
2022/05/04 06:02:41;;;;;;;7.97;7.07;;;;;;;17.06;57.70;98827.66;5094109;28;41551;-77
2022/05/04 06:05:11;;;;;;;8.50;7.60;;;;;;;17.20;57.48;98843.28;5108420;28;39959;-77
2022/05/04 06:07:38;;;;;;;8.23;7.43;;;;;;;17.34;57.46;98834.84;5090224;28;42929;-78
2022/05/04 06:10:08;;;;;;;9.90;8.33;;;;;;;17.53;57.24;98844.75;5090453;28;41686;-78
2022/05/04 06:12:35;;;;;;;11.67;8.63;;;;;;;17.65;56.99;98845.50;5091844;28;42265;-79
2022/05/04 06:15:03;;;;;;;8.13;7.23;;;;;;;17.76;56.78;98843.53;5073631;28;39101;-78
2022/05/04 06:17:31;;;;;;;9.23;7.63;;;;;;;17.83;55.96;98849.16;5092936;28;40825;-78
2022/05/04 06:19:58;;;;;;;7.70;7.00;;;;;;;17.91;56.50;98839.44;5110920;28;43456;-77
2022/05/04 06:22:27;;;;;;;8.77;7.87;;;;;;;17.96;55.55;98847.03;5094136;28;42752;-78
2022/05/04 06:24:55;;;;;;;9.07;8.10;;;;;;;17.94;55.06;98849.84;5102884;28;40043;-79
2022/05/04 06:27:23;;;;;;;8.50;7.57;;;;;;;18.07;55.11;98860.25;5090370;28;41288;-79
2022/05/04 06:35:20;;;;;;;8.60;7.70;;;;;;;18.67;54.17;98863.53;5099620;28;40016;-79
2022/05/04 06:37:49;;;;;;;8.20;7.47;;;;;;;18.72;53.75;98855.91;5110806;28;41695;-77
2022/05/04 06:40:17;;;;;;;9.07;7.77;;;;;;;18.82;53.37;98862.06;5110320;28;42623;-78
2022/05/04 06:42:48;;;;;;;8.40;7.10;;;;;;;18.93;52.56;98867.25;5110153;28;43522;-77
2022/05/04 06:45:15;;;;;;;8.87;7.97;;;;;;;19.01;52.23;98867.38;5089964;28;39938;-77
2022/05/04 06:47:43;;;;;;;8.63;7.80;;;;;;;19.09;52.62;98857.72;5076583;28;41753;-79
2022/05/04 06:50:11;;;;;;;8.10;7.30;;;;;;;19.21;51.83;98867.25;5073097;28;41065;-80
2022/05/04 06:52:38;;;;;;;8.83;7.93;;;;;;;19.28;51.62;98871.03;5090293;28;43170;-80
2022/05/04 06:55:09;;;;;;;7.83;6.93;;;;;;;19.37;51.46;98878.19;5102010;28;39851;-79
2022/05/04 06:57:37;;;;;;;7.77;6.90;;;;;;;19.45;50.95;98889.00;5111064;28;41897;-78
2022/05/04 07:00:05;;;;;;;8.13;7.33;;;;;;;19.55;50.12;98892.50;5094706;28;41899;-77
2022/05/04 07:02:34;;;;;;;9.10;7.63;;;;;;;19.61;50.16;98891.91;5114170;28;43037;-77
2022/05/04 07:05:02;;;;;;;8.23;7.43;;;;;;;19.79;50.09;98893.75;5113497;28;39610;-79
2022/05/04 07:07:30;;;;;;;7.83;7.13;;;;;;;20.06;50.06;98890.97;5113720;28;40268;-76
2022/05/04 07:09:58;;;;;;;7.97;7.27;;;;;;;20.32;49.25;98891.88;5101775;28;41752;-77
2022/05/04 07:12:27;;;;;;;9.77;8.60;;;;;;;20.66;49.16;98888.44;5094276;28;42966;-79
2022/05/04 07:14:56;;;;;;;10.87;8.17;;;;;;;21.08;48.15;98896.56;5093148;28;41031;-77
2022/05/04 07:17:23;;;;;;;7.97;7.17;;;;;;;21.40;47.29;98899.41;5112343;28;41685;-77
2022/05/04 07:19:51;;;;;;;9.93;8.90;;;;;;;21.65;47.10;98908.41;5113585;28;42555;-78
2022/05/04 07:22:19;;;;;;;7.43;6.73;;;;;;;21.86;46.33;98906.13;5113774;28;42123;-79
2022/05/04 07:24:46;;;;;;;9.00;8.10;;;;;;;22.06;46.35;98905.81;5076904;28;38926;-79
2022/05/04 07:27:14;;;;;;;8.80;7.93;;;;;;;21.91;45.03;98875.09;5093330;28;43555;-78
2022/05/04 07:29:44;;;;;;;10.50;8.40;;;;;;;22.15;44.43;98915.59;5092525;28;45067;-78
2022/05/04 07:32:12;;;;;;;8.97;8.07;;;;;;;22.22;44.26;98916.63;5093026;28;41164;-79
2022/05/04 07:34:40;;;;;;;7.30;6.60;;;;;;;22.25;44.74;98894.72;5107257;28;41878;-78
2022/05/04 07:37:08;;;;;;;9.20;7.10;;;;;;;22.51;44.68;98911.53;5113731;28;40775;-79
2022/05/04 07:42:25;;;;;;;8.73;7.93;;;;;;;22.86;43.68;98915.75;5106485;28;42508;-79
2022/05/04 07:44:58;;;;;;;11.77;8.13;;;;;;;23.05;42.22;98919.91;5092168;28;38885;-78
2022/05/04 07:47:27;;;;;;;8.07;7.27;;;;;;;23.26;43.08;98917.47;5091372;28;41641;-79
2022/05/04 07:49:54;;;;;;;7.73;7.03;;;;;;;23.55;42.89;98916.88;5075610;28;42422;-79
2022/05/04 07:52:22;;;;;;;8.50;7.70;;;;;;;23.78;41.47;98922.31;5096416;28;42523;-78
2022/05/04 07:54:50;;;;;;;9.90;7.77;;;;;;;24.02;40.86;98926.72;5113256;28;39709;-79
2022/05/04 07:57:17;;;;;;;8.27;7.47;;;;;;;24.46;41.33;98921.53;5112929;28;41390;-79
2022/05/04 08:04:16;;;;;;;9.27;7.77;;;;;;;25.09;39.52;98931.09;5112854;28;43203;-80
2022/05/04 08:05:23;;;;;;;8.93;8.13;;;;;;;25.71;37.60;98946.97;5092184;28;40992;-77
2022/05/04 08:07:50;;;;;;;7.83;7.03;;;;;;;25.94;37.09;98950.38;5092660;28;41491;-78
2022/05/04 08:10:18;;;;;;;7.63;6.97;;;;;;;26.35;37.37;98950.59;5093735;28;42583;-79
2022/05/04 08:12:45;;;;;;;7.80;7.03;;;;;;;26.82;36.66;98949.13;5097718;28;41278;-78
2022/05/04 08:15:13;;;;;;;6.90;6.17;;;;;;;27.24;37.29;98939.19;5092366;28;40908;-79
2022/05/04 08:17:42;;;;;;;7.93;7.23;;;;;;;27.46;35.01;98957.94;5092909;28;41565;-77
2022/05/04 08:20:11;;;;;;;6.80;6.20;;;;;;;27.55;35.44;98961.34;5077670;28;44287;-76
2022/05/04 08:22:39;;;;;;;7.40;6.70;;;;;;;27.62;35.92;98955.94;5112606;28;43213;-80
2022/05/04 08:25:07;;;;;;;7.73;7.03;;;;;;;27.67;36.20;98948.03;5112816;28;41960;-80
2022/05/04 08:27:34;;;;;;;7.60;6.53;;;;;;;28.14;34.30;98967.03;5095994;28;43032;-80
2022/05/04 08:30:02;;;;;;;7.53;6.87;;;;;;;29.03;32.42;98971.34;5112066;28;42918;-78
2022/05/04 08:32:30;;;;;;;7.20;6.50;;;;;;;29.10;33.78;98955.81;5095454;28;42322;-78
2022/05/04 08:34:59;;;;;;;6.93;6.23;;;;;;;29.08;32.43;98975.13;5112621;28;39163;-78
2022/05/04 08:37:28;;;;;;;6.80;6.20;;;;;;;29.20;32.54;98972.56;5113722;28;41757;-80
2022/05/04 08:39:55;;;;;;;6.23;5.73;;;;;;;29.02;32.72;98975.13;5112290;28;41649;-78
2022/05/04 08:42:23;;;;;;;6.23;5.73;;;;;;;29.39;32.92;98971.75;5111941;28;43694;-79
2022/05/04 08:44:55;;;;;;;7.60;6.90;;;;;;;29.79;31.85;98980.66;5108526;28;39943;-78
2022/05/04 08:47:24;;;;;;;8.47;6.43;;;;;;;30.13;32.19;98971.25;5109087;28;41613;-79
2022/05/04 08:49:51;;;;;;;9.07;8.17;;;;;;;31.33;30.67;98985.72;5095033;28;42039;-80
2022/05/04 08:52:21;;;;;;;6.23;5.63;;;;;;;32.53;28.72;98988.66;5112456;28;42009;-75
2022/05/04 08:54:50;;;;;;;6.37;5.77;;;;;;;33.33;26.64;99006.41;5112556;28;38974;-78
2022/05/04 08:57:18;;;;;;;6.60;6.00;;;;;;;33.13;26.77;99006.72;5112258;28;42025;-78
2022/05/04 08:59:45;;;;;;;7.20;6.60;;;;;;;33.24;27.39;98998.75;5112070;28;43789;-78
2022/05/04 09:02:13;;;;;;;7.37;6.67;;;;;;;33.14;26.96;98997.38;5108746;28;41168;-78
2022/05/04 09:04:44;;;;;;;7.90;7.30;;;;;;;33.28;28.09;98989.78;5090574;28;38534;-75
2022/05/04 09:07:24;;;;;;;6.37;5.87;;;;;;;33.39;26.87;99002.66;5126717;27;41855;-77
2022/05/04 09:09:53;;;;;;;8.23;7.57;;;;;;;33.32;27.18;98990.16;5120187;27;42886;-77
2022/05/04 09:12:20;;;;;;;7.00;6.13;;;;;;;33.25;27.18;98983.97;5094960;28;42173;-75
2022/05/04 09:14:48;;;;;;;6.63;6.03;;;;;;;33.25;27.32;98983.97;5087685;28;39840;-79
2022/05/04 09:17:17;;;;;;;8.17;7.43;;;;;;;33.52;26.19;98987.84;5090944;28;42927;-78
2022/05/04 09:20:45;;;;;;;6.97;6.37;;;;;;;33.84;25.75;99000.16;5090578;28;41888;-77
2022/05/04 09:22:50;;;;;;;5.80;5.30;;;;;;;33.90;26.23;98992.81;5091353;28;42677;-79
2022/05/04 09:25:18;;;;;;;5.97;5.47;;;;;;;33.93;25.63;98991.50;5074256;28;38924;-77
2022/05/04 09:27:47;;;;;;;6.37;5.87;;;;;;;33.96;25.24;98996.53;5091592;28;41620;-76
2022/05/04 09:30:15;;;;;;;6.47;5.97;;;;;;;33.86;25.98;98986.16;5091910;28;43487;-76
2022/05/04 09:32:42;;;;;;;7.37;6.67;;;;;;;33.57;26.62;98987.97;5091619;28;41461;-76
2022/05/04 09:35:13;;;;;;;6.20;5.70;;;;;;;33.80;26.51;98982.47;5092580;28;40277;-77
2022/05/04 09:46:04;;;;;;;6.57;6.03;;;;;;;33.42;26.63;98965.66;5111945;28;42019;-77
2022/05/04 09:48:32;;;;;;;6.97;6.43;;;;;;;33.26;25.86;98983.69;5111188;28;40637;-77
2022/05/04 09:51:05;;;;;;;6.87;6.27;;;;;;;34.14;25.50;98977.09;5111080;28;42856;-77
2022/05/04 09:53:33;;;;;;;5.40;5.00;;;;;;;35.62;23.64;98984.03;5094039;28;42401;-77
2022/05/04 09:56:03;;;;;;;5.77;5.27;;;;;;;36.27;23.46;98983.25;5111354;28;40127;-82
2022/05/04 09:58:32;;;;;;;5.27;4.83;;;;;;;36.09;22.88;98983.56;5110770;28;42718;-78
2022/05/04 10:01:00;;;;;;;5.70;5.20;;;;;;;35.33;22.63;98979.78;5094628;28;43462;-78
2022/05/04 10:03:28;;;;;;;5.23;4.43;;;;;;;34.70;24.19;98967.16;5094182;28;41954;-81
2022/05/04 10:05:56;;;;;;;5.00;4.70;;;;;;;34.24;25.62;98949.81;5094450;28;40938;-76
2022/05/04 10:08:23;;;;;;;6.00;5.40;;;;;;;34.15;25.67;98963.09;5111021;28;41738;-76
2022/05/04 10:10:54;;;;;;;5.23;4.83;;;;;;;34.29;24.82;98960.09;5112310;28;42988;-76
2022/05/04 10:13:24;;;;;;;4.87;4.47;;;;;;;34.04;23.69;98971.41;5109261;28;43114;-81
2022/05/04 10:15:54;;;;;;;4.43;4.13;;;;;;;33.90;25.79;98943.38;5105240;28;39938;-78
2022/05/04 10:18:25;;;;;;;6.53;5.93;;;;;;;34.05;25.83;98945.59;5091396;28;42462;-78
2022/05/04 10:21:01;;;;;;;6.37;5.87;;;;;;;35.03;24.20;98942.41;5087907;28;42874;-76
2022/05/04 10:23:32;;;;;;;5.67;5.13;;;;;;;36.15;22.51;98957.69;5095906;28;43221;-80
2022/05/04 10:26:00;;;;;;;5.83;5.37;;;;;;;36.98;21.64;98953.56;5111167;28;39560;-80
2022/05/04 10:28:37;;;;;;;6.67;6.07;;;;;;;37.77;21.23;98948.00;5112473;28;41867;-78
2022/05/04 10:31:10;;;;;;;5.43;5.03;;;;;;;38.36;20.33;98958.69;5114539;28;44758;-79
2022/05/04 10:33:38;;;;;;;5.03;4.70;;;;;;;38.23;20.82;98945.41;5105862;28;42940;-80
2022/05/04 10:36:16;;;;;;;6.27;5.77;;;;;;;37.83;19.79;98944.16;5077386;28;38876;-80
2022/05/04 10:38:46;;;;;;;6.53;5.93;;;;;;;37.59;21.03;98932.69;5092679;28;41799;-81
2022/05/04 10:41:13;;;;;;;5.27;4.77;;;;;;;37.91;20.74;98907.69;5076970;28;43595;-79
2022/05/04 10:43:45;;;;;;;5.00;4.60;;;;;;;38.46;20.88;98914.44;5110958;28;43293;-81
2022/05/04 10:46:16;;;;;;;5.47;5.07;;;;;;;38.23;21.07;98913.03;5105040;28;38897;-78
2022/05/04 10:48:44;;;;;;;5.90;5.30;;;;;;;37.32;22.00;98910.75;5093939;28;42365;-78
2022/05/04 10:51:18;;;;;;;6.40;5.67;;;;;;;35.82;22.68;98907.19;5093511;28;43557;-77
2022/05/04 10:53:48;;;;;;;5.17;4.77;;;;;;;35.41;24.37;98893.94;5093022;28;41509;-78
2022/05/04 10:56:17;;;;;;;4.93;4.53;;;;;;;35.10;24.16;98893.53;5110553;28;40934;-80
2022/05/04 10:58:54;;;;;;;5.83;5.17;;;;;;;35.46;24.30;98888.53;5093356;28;42486;-80
2022/05/04 11:01:23;;;;;;;4.73;4.17;;;;;;;35.40;24.57;98878.50;5091562;28;42673;-80
2022/05/04 11:04:06;;;;;;;4.00;3.70;;;;;;;34.73;25.04;98881.38;5093415;28;41977;-77
2022/05/04 11:06:34;;;;;;;5.27;4.23;;;;;;;33.92;26.05;98877.16;5109544;28;40884;-79
2022/05/04 11:09:07;;;;;;;4.80;4.40;;;;;;;33.15;26.83;98861.00;5129093;28;41946;-78
2022/05/04 11:11:36;;;;;;;6.57;5.33;;;;;;;32.62;27.86;98864.72;5129729;28;43297;-78
2022/05/04 11:14:06;;;;;;;4.13;3.80;;;;;;;32.03;28.20;98854.66;5128381;28;41477;-79
2022/05/04 11:16:35;;;;;;;5.43;4.50;;;;;;;31.41;28.87;98852.13;5116307;28;40147;-78
2022/05/04 11:19:04;;;;;;;5.60;4.40;;;;;;;30.83;30.12;98849.00;5108024;28;42443;-77
2022/05/04 11:21:33;;;;;;;4.60;4.27;;;;;;;30.27;30.20;98835.41;5078449;28;42991;-79
2022/05/04 11:24:03;;;;;;;4.20;3.80;;;;;;;29.71;31.40;98822.53;5076029;28;40922;-79
2022/05/04 11:26:35;;;;;;;4.70;4.10;;;;;;;29.20;32.04;98819.81;5088865;28;39124;-79
2022/05/04 11:29:10;;;;;;;5.07;3.90;;;;;;;28.72;32.58;98822.88;5111706;28;41915;-77
2022/05/04 11:31:38;;;;;;;4.00;3.57;;;;;;;28.35;32.94;98826.28;5084459;28;43248;-77
2022/05/04 11:34:05;;;;;;;4.23;3.87;;;;;;;28.02;34.30;98808.03;5092780;28;44486;-77
2022/05/04 11:36:33;;;;;;;3.80;3.50;;;;;;;27.66;34.72;98805.69;5094380;28;38930;-77
2022/05/04 11:39:03;;;;;;;3.80;3.50;;;;;;;27.28;35.09;98797.19;5075658;28;44235;-78
2022/05/04 11:41:30;;;;;;;3.77;3.47;;;;;;;26.97;35.79;98800.38;5102379;28;41527;-78
2022/05/04 11:43:58;;;;;;;4.93;3.73;;;;;;;26.58;36.77;98779.25;5095912;28;41519;-77
2022/05/04 11:46:27;;;;;;;4.73;4.43;;;;;;;26.18;37.38;98785.44;5108569;28;41977;-78
2022/05/04 11:48:58;;;;;;;6.23;3.50;;;;;;;25.75;39.11;98782.75;5101340;28;41801;-77
2022/05/04 11:51:25;;;;;;;4.50;4.20;;;;;;;25.23;40.05;98773.00;5093885;28;42808;-79
2022/05/04 11:53:53;;;;;;;4.27;3.87;;;;;;;24.64;42.34;98764.94;5092302;28;42048;-77
2022/05/04 11:56:21;;;;;;;4.83;4.43;;;;;;;24.08;44.72;98760.13;5094172;28;41585;-77
2022/05/04 11:58:52;;;;;;;6.50;5.90;;;;;;;23.54;46.69;98750.28;5093946;28;40855;-77
2022/05/04 12:01:20;;;;;;;7.40;5.17;;;;;;;23.05;47.33;98744.34;5092669;28;41684;-77
2022/05/04 12:03:51;;;;;;;6.40;5.47;;;;;;;22.60;49.01;98738.78;5075348;28;41793;-77
2022/05/04 12:06:18;;;;;;;7.00;5.20;;;;;;;22.05;51.24;98715.34;5110458;28;41267;-77
2022/05/04 12:08:47;;;;;;;5.60;5.10;;;;;;;21.77;52.83;98737.25;5112325;28;41867;-77
2022/05/04 12:11:16;;;;;;;5.73;4.87;;;;;;;21.35;54.45;98733.91;5113763;28;42647;-77
2022/05/04 12:13:45;;;;;;;5.53;5.03;;;;;;;21.01;55.32;98736.69;5105302;28;41454;-77
2022/05/04 12:16:13;;;;;;;6.43;5.60;;;;;;;20.53;56.44;98731.94;5099145;27;40918;-77